sensor_id;sensor_type;location;lat;lon;timestamp;pressure;altitude;pressure_sealevel;temperature;humidity
30339;BME280;795;49.296;11.348;2023-01-28T00:00:54;96746.31;;;-1.47;100.00
30339;BME280;795;49.296;11.348;2023-01-28T00:03:21;96761.34;;;-1.33;100.00
30339;BME280;795;49.296;11.348;2023-01-28T00:05:48;96734.69;;;-1.43;100.00
30339;BME280;795;49.296;11.348;2023-01-28T00:08:15;96729.91;;;-1.37;100.00
30339;BME280;795;49.296;11.348;2023-01-28T00:10:42;96755.50;;;-1.39;100.00
30339;BME280;795;49.296;11.348;2023-01-28T00:13:12;96845.66;;;-0.74;100.00
30339;BME280;795;49.296;11.348;2023-01-28T00:15:42;96756.91;;;-1.33;100.00
30339;BME280;795;49.296;11.348;2023-01-28T00:18:09;96726.72;;;-1.57;100.00
30339;BME280;795;49.296;11.348;2023-01-28T00:20:36;96844.16;;;-0.94;100.00
30339;BME280;795;49.296;11.348;2023-01-28T00:23:03;96843.63;;;-0.85;100.00
30339;BME280;795;49.296;11.348;2023-01-28T00:25:30;96794.50;;;-1.15;100.00
30339;BME280;795;49.296;11.348;2023-01-28T00:27:57;96685.84;;;-1.78;100.00
30339;BME280;795;49.296;11.348;2023-01-28T00:30:24;96729.91;;;-1.37;100.00
30339;BME280;795;49.296;11.348;2023-01-28T00:32:53;96741.88;;;-1.31;100.00
30339;BME280;795;49.296;11.348;2023-01-28T00:35:21;96830.09;;;-0.79;100.00
30339;BME280;795;49.296;11.348;2023-01-28T00:37:48;96806.78;;;-1.00;100.00
30339;BME280;795;49.296;11.348;2023-01-28T00:40:15;96795.41;;;-1.01;100.00
30339;BME280;795;49.296;11.348;2023-01-28T00:42:42;96839.22;;;-0.84;100.00
30339;BME280;795;49.296;11.348;2023-01-28T00:45:09;96776.81;;;-1.13;100.00
30339;BME280;795;49.296;11.348;2023-01-28T00:47:36;96830.81;;;-0.91;100.00
30339;BME280;795;49.296;11.348;2023-01-28T00:50:04;96815.94;;;-0.92;100.00
30339;BME280;795;49.296;11.348;2023-01-28T00:52:31;96750.28;;;-1.24;100.00
30339;BME280;795;49.296;11.348;2023-01-28T00:54:58;96682.69;;;-1.69;100.00
30339;BME280;795;49.296;11.348;2023-01-28T00:57:25;96839.34;;;-0.72;100.00
30339;BME280;795;49.296;11.348;2023-01-28T00:59:52;96734.06;;;-1.33;100.00
30339;BME280;795;49.296;11.348;2023-01-28T01:02:19;96833.28;;;-0.88;100.00
30339;BME280;795;49.296;11.348;2023-01-28T01:04:46;96820.44;;;-0.94;100.00
30339;BME280;795;49.296;11.348;2023-01-28T01:07:28;96811.59;;;-1.07;100.00
30339;BME280;795;49.296;11.348;2023-01-28T01:10:01;96864.06;;;-0.88;100.00
30339;BME280;795;49.296;11.348;2023-01-28T01:12:28;96743.69;;;-1.47;100.00
30339;BME280;795;49.296;11.348;2023-01-28T01:14:56;96813.09;;;-1.03;100.00
30339;BME280;795;49.296;11.348;2023-01-28T01:17:24;96821.09;;;-1.04;100.00
30339;BME280;795;49.296;11.348;2023-01-28T01:19:51;96807.03;;;-1.19;100.00
30339;BME280;795;49.296;11.348;2023-01-28T01:22:18;96771.03;;;-1.34;100.00
30339;BME280;795;49.296;11.348;2023-01-28T01:24:47;96790.38;;;-1.19;100.00
30339;BME280;795;49.296;11.348;2023-01-28T01:27:14;96734.19;;;-1.50;100.00
30339;BME280;795;49.296;11.348;2023-01-28T01:29:41;96796.88;;;-1.11;100.00
30339;BME280;795;49.296;11.348;2023-01-28T01:32:08;96842.97;;;-0.88;100.00
30339;BME280;795;49.296;11.348;2023-01-28T01:34:35;96773.88;;;-1.23;100.00
30339;BME280;795;49.296;11.348;2023-01-28T01:37:02;96728.09;;;-1.66;100.00
30339;BME280;795;49.296;11.348;2023-01-28T01:39:31;96804.88;;;-1.12;100.00
30339;BME280;795;49.296;11.348;2023-01-28T01:41:58;96834.00;;;-1.00;100.00
30339;BME280;795;49.296;11.348;2023-01-28T01:45:11;96876.97;;;-0.84;100.00
30339;BME280;795;49.296;11.348;2023-01-28T01:48:32;96739.56;;;-1.67;100.00
30339;BME280;795;49.296;11.348;2023-01-28T01:51:14;96873.00;;;-0.91;100.00
30339;BME280;795;49.296;11.348;2023-01-28T01:53:48;96797.97;;;-1.45;100.00
30339;BME280;795;49.296;11.348;2023-01-28T01:56:27;96853.22;;;-1.13;100.00
30339;BME280;795;49.296;11.348;2023-01-28T01:58:57;96883.44;;;-0.89;100.00
30339;BME280;795;49.296;11.348;2023-01-28T02:01:30;96846.00;;;-1.10;100.00
30339;BME280;795;49.296;11.348;2023-01-28T02:04:13;96870.69;;;-0.97;100.00
30339;BME280;795;49.296;11.348;2023-01-28T02:06:41;96869.00;;;-0.98;100.00
30339;BME280;795;49.296;11.348;2023-01-28T02:09:32;96891.75;;;-0.81;100.00
30339;BME280;795;49.296;11.348;2023-01-28T02:12:15;96885.31;;;-0.91;100.00
30339;BME280;795;49.296;11.348;2023-01-28T02:15:00;96879.19;;;-0.92;100.00
30339;BME280;795;49.296;11.348;2023-01-28T02:17:29;96843.53;;;-1.13;100.00
30339;BME280;795;49.296;11.348;2023-01-28T02:20:12;96845.91;;;-1.08;100.00
30339;BME280;795;49.296;11.348;2023-01-28T02:26:50;96895.25;;;-0.81;100.00
30339;BME280;795;49.296;11.348;2023-01-28T02:29:49;96884.88;;;-0.84;100.00
30339;BME280;795;49.296;11.348;2023-01-28T02:32:36;96815.25;;;-1.25;100.00
30339;BME280;795;49.296;11.348;2023-01-28T02:38:10;96857.78;;;-1.01;100.00
30339;BME280;795;49.296;11.348;2023-01-28T02:40:50;96897.50;;;-0.75;100.00
30339;BME280;795;49.296;11.348;2023-01-28T02:43:45;96867.44;;;-0.86;100.00
30339;BME280;795;49.296;11.348;2023-01-28T02:46:35;96901.91;;;-0.59;100.00
30339;BME280;795;49.296;11.348;2023-01-28T02:49:37;96906.88;;;-0.69;100.00
30339;BME280;795;49.296;11.348;2023-01-28T02:52:43;96901.81;;;-0.58;100.00
30339;BME280;795;49.296;11.348;2023-01-28T02:58:53;96905.41;;;-0.59;100.00
30339;BME280;795;49.296;11.348;2023-01-28T03:01:36;96906.59;;;-0.64;100.00
30339;BME280;795;49.296;11.348;2023-01-28T03:04:19;96855.28;;;-0.89;100.00
30339;BME280;795;49.296;11.348;2023-01-28T03:06:59;96769.31;;;-1.35;100.00
30339;BME280;795;49.296;11.348;2023-01-28T03:09:30;96796.41;;;-1.33;100.00
30339;BME280;795;49.296;11.348;2023-01-28T03:12:10;96901.25;;;-0.63;100.00
30339;BME280;795;49.296;11.348;2023-01-28T03:15:18;96882.25;;;-0.84;100.00
30339;BME280;795;49.296;11.348;2023-01-28T03:18:23;96898.28;;;-0.73;100.00
30339;BME280;795;49.296;11.348;2023-01-28T03:21:33;96888.09;;;-0.79;100.00
30339;BME280;795;49.296;11.348;2023-01-28T03:24:37;96872.13;;;-0.91;100.00
30339;BME280;795;49.296;11.348;2023-01-28T03:27:49;96867.50;;;-1.02;100.00
30339;BME280;795;49.296;11.348;2023-01-28T03:30:49;96910.63;;;-0.73;100.00
30339;BME280;795;49.296;11.348;2023-01-28T03:33:39;96893.16;;;-0.90;100.00
30339;BME280;795;49.296;11.348;2023-01-28T03:36:27;96911.06;;;-0.81;100.00
30339;BME280;795;49.296;11.348;2023-01-28T03:39:15;96907.41;;;-0.78;100.00
30339;BME280;795;49.296;11.348;2023-01-28T03:41:58;96892.94;;;-0.87;100.00
30339;BME280;795;49.296;11.348;2023-01-28T03:44:26;96893.31;;;-0.93;100.00
30339;BME280;795;49.296;11.348;2023-01-28T03:47:13;96915.56;;;-0.83;100.00
30339;BME280;795;49.296;11.348;2023-01-28T03:49:48;96839.91;;;-1.26;100.00
30339;BME280;795;49.296;11.348;2023-01-28T03:52:20;96920.59;;;-0.94;100.00
30339;BME280;795;49.296;11.348;2023-01-28T03:54:48;96926.88;;;-0.81;100.00
30339;BME280;795;49.296;11.348;2023-01-28T03:57:20;96837.88;;;-1.37;100.00
30339;BME280;795;49.296;11.348;2023-01-28T03:59:47;96859.78;;;-1.20;100.00
30339;BME280;795;49.296;11.348;2023-01-28T04:02:21;96903.09;;;-0.95;100.00
30339;BME280;795;49.296;11.348;2023-01-28T04:04:49;96846.44;;;-1.33;100.00
30339;BME280;795;49.296;11.348;2023-01-28T04:07:16;96924.41;;;-0.84;100.00
30339;BME280;795;49.296;11.348;2023-01-28T04:09:43;96832.78;;;-1.40;100.00
30339;BME280;795;49.296;11.348;2023-01-28T04:12:11;96890.53;;;-1.05;100.00
30339;BME280;795;49.296;11.348;2023-01-28T04:14:38;96892.91;;;-1.01;100.00
30339;BME280;795;49.296;11.348;2023-01-28T04:17:07;96780.50;;;-1.61;100.00
30339;BME280;795;49.296;11.348;2023-01-28T04:19:36;96894.66;;;-1.01;100.00
30339;BME280;795;49.296;11.348;2023-01-28T04:22:09;96934.53;;;-0.76;100.00
30339;BME280;795;49.296;11.348;2023-01-28T04:24:36;96891.28;;;-1.03;100.00
30339;BME280;795;49.296;11.348;2023-01-28T04:27:03;96928.50;;;-0.94;100.00
30339;BME280;795;49.296;11.348;2023-01-28T04:29:30;96810.88;;;-1.56;100.00
30339;BME280;795;49.296;11.348;2023-01-28T04:31:57;96949.22;;;-0.72;100.00
30339;BME280;795;49.296;11.348;2023-01-28T04:34:24;96903.78;;;-1.07;100.00
30339;BME280;795;49.296;11.348;2023-01-28T04:36:51;96791.53;;;-1.70;100.00
30339;BME280;795;49.296;11.348;2023-01-28T04:39:18;96869.75;;;-1.41;100.00
30339;BME280;795;49.296;11.348;2023-01-28T04:41:45;96957.16;;;-0.88;100.00
30339;BME280;795;49.296;11.348;2023-01-28T04:44:12;96907.34;;;-1.08;100.00
30339;BME280;795;49.296;11.348;2023-01-28T04:46:39;96806.63;;;-1.74;100.00
30339;BME280;795;49.296;11.348;2023-01-28T04:49:06;96858.69;;;-1.32;100.00
30339;BME280;795;49.296;11.348;2023-01-28T04:51:33;96824.72;;;-1.52;100.00
30339;BME280;795;49.296;11.348;2023-01-28T04:54:00;96856.81;;;-1.30;100.00
30339;BME280;795;49.296;11.348;2023-01-28T04:56:27;96954.06;;;-0.64;100.00
30339;BME280;795;49.296;11.348;2023-01-28T04:58:54;96951.00;;;-0.73;100.00
30339;BME280;795;49.296;11.348;2023-01-28T05:01:20;96820.91;;;-1.47;100.00
30339;BME280;795;49.296;11.348;2023-01-28T05:03:47;96952.44;;;-0.67;100.00
30339;BME280;795;49.296;11.348;2023-01-28T05:06:14;96923.97;;;-0.92;100.00
30339;BME280;795;49.296;11.348;2023-01-28T05:08:41;96872.94;;;-1.20;100.00
30339;BME280;795;49.296;11.348;2023-01-28T05:11:08;96888.06;;;-1.08;100.00
30339;BME280;795;49.296;11.348;2023-01-28T05:13:35;96893.75;;;-1.16;100.00
30339;BME280;795;49.296;11.348;2023-01-28T05:16:02;96919.50;;;-0.90;100.00
30339;BME280;795;49.296;11.348;2023-01-28T05:18:30;96911.16;;;-0.98;100.00
30339;BME280;795;49.296;11.348;2023-01-28T05:20:57;96900.03;;;-1.03;100.00
30339;BME280;795;49.296;11.348;2023-01-28T05:23:24;96848.66;;;-1.25;100.00
30339;BME280;795;49.296;11.348;2023-01-28T05:25:51;96958.19;;;-0.60;100.00
30339;BME280;795;49.296;11.348;2023-01-28T05:28:18;96875.56;;;-1.05;100.00
30339;BME280;795;49.296;11.348;2023-01-28T05:30:45;96947.16;;;-0.67;100.00
30339;BME280;795;49.296;11.348;2023-01-28T05:33:12;96914.72;;;-0.83;100.00
30339;BME280;795;49.296;11.348;2023-01-28T05:35:38;96950.06;;;-0.56;100.00
30339;BME280;795;49.296;11.348;2023-01-28T05:38:05;96804.84;;;-1.42;100.00
30339;BME280;795;49.296;11.348;2023-01-28T05:40:32;96907.91;;;-0.87;100.00
30339;BME280;795;49.296;11.348;2023-01-28T05:43:00;96953.44;;;-0.54;100.00
30339;BME280;795;49.296;11.348;2023-01-28T05:45:26;96965.94;;;-0.57;100.00
30339;BME280;795;49.296;11.348;2023-01-28T05:47:53;96884.88;;;-0.99;100.00
30339;BME280;795;49.296;11.348;2023-01-28T05:50:20;96958.03;;;-0.57;100.00
30339;BME280;795;49.296;11.348;2023-01-28T05:52:47;96837.94;;;-1.22;100.00
30339;BME280;795;49.296;11.348;2023-01-28T05:55:14;96958.63;;;-0.52;100.00
30339;BME280;795;49.296;11.348;2023-01-28T05:57:41;96940.44;;;-0.73;100.00
30339;BME280;795;49.296;11.348;2023-01-28T06:00:11;96936.28;;;-0.77;100.00
30339;BME280;795;49.296;11.348;2023-01-28T06:02:39;96917.34;;;-0.83;100.00
30339;BME280;795;49.296;11.348;2023-01-28T06:05:07;96901.13;;;-0.91;100.00
30339;BME280;795;49.296;11.348;2023-01-28T06:07:34;96846.44;;;-1.17;100.00
30339;BME280;795;49.296;11.348;2023-01-28T06:10:01;96969.53;;;-0.58;100.00
30339;BME280;795;49.296;11.348;2023-01-28T06:12:28;96837.09;;;-1.23;100.00
30339;BME280;795;49.296;11.348;2023-01-28T06:14:55;96822.09;;;-1.37;100.00
30339;BME280;795;49.296;11.348;2023-01-28T06:17:22;96851.69;;;-1.17;100.00
30339;BME280;795;49.296;11.348;2023-01-28T06:19:49;96944.25;;;-0.62;100.00
30339;BME280;795;49.296;11.348;2023-01-28T06:22:16;96962.78;;;-0.48;100.00
30339;BME280;795;49.296;11.348;2023-01-28T06:24:43;96942.06;;;-0.70;100.00
30339;BME280;795;49.296;11.348;2023-01-28T06:27:10;96988.63;;;-0.39;100.00
30339;BME280;795;49.296;11.348;2023-01-28T06:29:37;96981.66;;;-0.40;100.00
30339;BME280;795;49.296;11.348;2023-01-28T06:32:06;96927.09;;;-0.70;100.00
30339;BME280;795;49.296;11.348;2023-01-28T06:34:32;96971.09;;;-0.40;100.00
30339;BME280;795;49.296;11.348;2023-01-28T06:36:59;96956.53;;;-0.61;100.00
30339;BME280;795;49.296;11.348;2023-01-28T06:39:26;96864.19;;;-1.21;100.00
30339;BME280;795;49.296;11.348;2023-01-28T06:41:57;96962.06;;;-0.66;100.00
30339;BME280;795;49.296;11.348;2023-01-28T06:44:25;97005.38;;;-0.40;100.00
30339;BME280;795;49.296;11.348;2023-01-28T06:46:52;96923.31;;;-0.95;100.00
30339;BME280;795;49.296;11.348;2023-01-28T06:49:19;97010.06;;;-0.45;100.00
30339;BME280;795;49.296;11.348;2023-01-28T06:51:47;96976.16;;;-0.67;100.00
30339;BME280;795;49.296;11.348;2023-01-28T06:54:15;97022.81;;;-0.38;100.00
30339;BME280;795;49.296;11.348;2023-01-28T06:56:42;96976.75;;;-0.62;100.00
30339;BME280;795;49.296;11.348;2023-01-28T06:59:09;96947.97;;;-0.81;100.00
30339;BME280;795;49.296;11.348;2023-01-28T07:01:36;96899.63;;;-1.11;100.00
30339;BME280;795;49.296;11.348;2023-01-28T07:04:03;97020.94;;;-0.36;100.00
30339;BME280;795;49.296;11.348;2023-01-28T07:06:30;96949.66;;;-0.80;100.00
30339;BME280;795;49.296;11.348;2023-01-28T07:08:57;96920.69;;;-1.11;100.00
30339;BME280;795;49.296;11.348;2023-01-28T07:11:24;96874.75;;;-1.37;100.00
30339;BME280;795;49.296;11.348;2023-01-28T07:13:51;96930.56;;;-1.30;100.00
30339;BME280;795;49.296;11.348;2023-01-28T07:16:18;96997.69;;;-0.75;100.00
30339;BME280;795;49.296;11.348;2023-01-28T07:18:45;96962.44;;;-0.88;100.00
30339;BME280;795;49.296;11.348;2023-01-28T07:21:12;96953.84;;;-1.07;100.00
30339;BME280;795;49.296;11.348;2023-01-28T07:23:39;97019.09;;;-0.65;100.00
30339;BME280;795;49.296;11.348;2023-01-28T07:26:06;97005.84;;;-0.63;100.00
30339;BME280;795;49.296;11.348;2023-01-28T07:28:33;97049.69;;;-0.31;100.00
30339;BME280;795;49.296;11.348;2023-01-28T07:31:00;97036.00;;;-0.22;100.00
30339;BME280;795;49.296;11.348;2023-01-28T07:33:27;97055.41;;;-0.23;100.00
30339;BME280;795;49.296;11.348;2023-01-28T07:35:54;97057.50;;;-0.14;100.00
30339;BME280;795;49.296;11.348;2023-01-28T07:38:21;96980.13;;;-0.44;100.00
30339;BME280;795;49.296;11.348;2023-01-28T07:40:48;96943.66;;;-0.52;100.00
30339;BME280;795;49.296;11.348;2023-01-28T07:43:15;96952.00;;;-0.75;100.00
30339;BME280;795;49.296;11.348;2023-01-28T07:45:42;96934.47;;;-0.90;100.00
30339;BME280;795;49.296;11.348;2023-01-28T07:48:12;96994.63;;;-0.51;100.00
30339;BME280;795;49.296;11.348;2023-01-28T07:50:39;96916.78;;;-0.88;100.00
30339;BME280;795;49.296;11.348;2023-01-28T07:53:10;97060.06;;;-0.13;100.00
30339;BME280;795;49.296;11.348;2023-01-28T07:55:38;97058.84;;;-0.07;100.00
30339;BME280;795;49.296;11.348;2023-01-28T07:58:10;96982.06;;;-0.78;100.00
30339;BME280;795;49.296;11.348;2023-01-28T08:00:38;96849.84;;;-1.47;100.00
30339;BME280;795;49.296;11.348;2023-01-28T08:03:12;97060.94;;;-0.28;100.00
30339;BME280;795;49.296;11.348;2023-01-28T08:05:47;96959.94;;;-0.91;100.00
30339;BME280;795;49.296;11.348;2023-01-28T08:08:15;97071.06;;;-0.20;100.00
30339;BME280;795;49.296;11.348;2023-01-28T08:10:44;97070.78;;;-0.16;100.00
30339;BME280;795;49.296;11.348;2023-01-28T08:13:13;97070.19;;;-0.05;100.00
30339;BME280;795;49.296;11.348;2023-01-28T08:15:41;97015.97;;;-0.26;100.00
30339;BME280;795;49.296;11.348;2023-01-28T08:18:12;97059.22;;;-0.13;100.00
30339;BME280;795;49.296;11.348;2023-01-28T08:20:40;96919.72;;;-0.79;100.00
30339;BME280;795;49.296;11.348;2023-01-28T08:23:18;97069.63;;;0.04;100.00
30339;BME280;795;49.296;11.348;2023-01-28T08:25:47;97015.91;;;-0.25;100.00
30339;BME280;795;49.296;11.348;2023-01-28T08:28:16;96990.31;;;-0.38;100.00
30339;BME280;795;49.296;11.348;2023-01-28T08:30:43;96978.56;;;-0.33;100.00
30339;BME280;795;49.296;11.348;2023-01-28T08:33:14;96988.00;;;-0.29;100.00
30339;BME280;795;49.296;11.348;2023-01-28T08:35:41;96975.00;;;-0.32;100.00
30339;BME280;795;49.296;11.348;2023-01-28T08:38:12;97053.84;;;0.18;100.00
30339;BME280;795;49.296;11.348;2023-01-28T08:40:39;96946.72;;;-0.44;100.00
30339;BME280;795;49.296;11.348;2023-01-28T08:43:06;97008.53;;;-0.04;100.00
30339;BME280;795;49.296;11.348;2023-01-28T08:45:33;96979.75;;;-0.38;100.00
30339;BME280;795;49.296;11.348;2023-01-28T08:48:04;97074.03;;;0.19;100.00
30339;BME280;795;49.296;11.348;2023-01-28T08:50:38;97066.50;;;0.27;100.00
30339;BME280;795;49.296;11.348;2023-01-28T08:53:12;97070.13;;;0.40;100.00
30339;BME280;795;49.296;11.348;2023-01-28T08:55:40;97008.53;;;-0.04;100.00
30339;BME280;795;49.296;11.348;2023-01-28T08:58:15;97071.59;;;0.30;100.00
30339;BME280;795;49.296;11.348;2023-01-28T09:03:47;97052.81;;;0.21;100.00
30339;BME280;795;49.296;11.348;2023-01-28T09:06:14;97012.88;;;-0.03;100.00
30339;BME280;795;49.296;11.348;2023-01-28T09:08:41;97051.19;;;0.18;100.00
30339;BME280;795;49.296;11.348;2023-01-28T09:11:08;97019.22;;;0.09;100.00
30339;BME280;795;49.296;11.348;2023-01-28T09:13:35;97015.69;;;0.24;100.00
30339;BME280;795;49.296;11.348;2023-01-28T09:16:05;96989.59;;;0.04;100.00
30339;BME280;795;49.296;11.348;2023-01-28T09:18:32;97002.53;;;0.08;100.00
30339;BME280;795;49.296;11.348;2023-01-28T09:20:59;97032.44;;;0.23;100.00
30339;BME280;795;49.296;11.348;2023-01-28T09:23:26;97039.78;;;0.18;100.00
30339;BME280;795;49.296;11.348;2023-01-28T09:25:59;97083.06;;;0.45;100.00
30339;BME280;795;49.296;11.348;2023-01-28T09:28:27;97093.06;;;0.54;100.00
30339;BME280;795;49.296;11.348;2023-01-28T09:31:06;97054.28;;;0.40;100.00
30339;BME280;795;49.296;11.348;2023-01-28T09:33:35;97093.34;;;0.63;100.00
30339;BME280;795;49.296;11.348;2023-01-28T09:36:07;97097.38;;;0.41;100.00
30339;BME280;795;49.296;11.348;2023-01-28T09:38:35;96914.50;;;-0.64;100.00
30339;BME280;795;49.296;11.348;2023-01-28T09:41:29;97067.63;;;0.23;100.00
30339;BME280;795;49.296;11.348;2023-01-28T09:47:04;97109.00;;;0.52;100.00
30339;BME280;795;49.296;11.348;2023-01-28T09:49:43;97004.84;;;-0.02;100.00
30339;BME280;795;49.296;11.348;2023-01-28T09:52:18;97100.47;;;0.33;100.00
30339;BME280;795;49.296;11.348;2023-01-28T09:54:57;96995.63;;;-0.24;100.00
30339;BME280;795;49.296;11.348;2023-01-28T09:57:39;97061.44;;;0.09;100.00
30339;BME280;795;49.296;11.348;2023-01-28T10:00:20;97111.06;;;0.47;100.00
30339;BME280;795;49.296;11.348;2023-01-28T10:03:27;97075.72;;;0.20;100.00
30339;BME280;795;49.296;11.348;2023-01-28T10:09:52;97111.81;;;0.49;100.00
30339;BME280;795;49.296;11.348;2023-01-28T10:18:58;97095.03;;;0.36;100.00
30339;BME280;795;49.296;11.348;2023-01-28T10:21:42;97018.34;;;0.08;100.00
30339;BME280;795;49.296;11.348;2023-01-28T10:24:35;97028.13;;;0.22;100.00
30339;BME280;795;49.296;11.348;2023-01-28T10:27:25;97090.91;;;0.60;100.00
30339;BME280;795;49.296;11.348;2023-01-28T10:29:55;97041.06;;;0.40;100.00
30339;BME280;795;49.296;11.348;2023-01-28T10:32:43;97001.63;;;0.37;100.00
30339;BME280;795;49.296;11.348;2023-01-28T10:35:13;96910.59;;;0.15;100.00
30339;BME280;795;49.296;11.348;2023-01-28T10:37:40;97034.50;;;1.04;100.00
30339;BME280;795;49.296;11.348;2023-01-28T10:40:16;97089.44;;;1.68;100.00
30339;BME280;795;49.296;11.348;2023-01-28T10:42:44;97089.19;;;1.58;100.00
30339;BME280;795;49.296;11.348;2023-01-28T10:45:28;96955.06;;;1.05;100.00
30339;BME280;795;49.296;11.348;2023-01-28T10:48:13;97086.63;;;1.97;100.00
30339;BME280;795;49.296;11.348;2023-01-28T10:50:59;97078.84;;;2.21;100.00
30339;BME280;795;49.296;11.348;2023-01-28T10:53:42;97006.03;;;1.75;100.00
30339;BME280;795;49.296;11.348;2023-01-28T10:56:31;96927.19;;;1.14;100.00
30339;BME280;795;49.296;11.348;2023-01-28T10:59:22;97074.22;;;1.71;100.00
30339;BME280;795;49.296;11.348;2023-01-28T11:02:02;97033.06;;;0.98;100.00
30339;BME280;795;49.296;11.348;2023-01-28T11:04:35;96949.75;;;0.22;100.00
30339;BME280;795;49.296;11.348;2023-01-28T11:07:24;97077.84;;;0.87;100.00
30339;BME280;795;49.296;11.348;2023-01-28T11:09:51;96900.66;;;-0.24;100.00
30339;BME280;795;49.296;11.348;2023-01-28T11:12:27;97087.25;;;0.77;100.00
30339;BME280;795;49.296;11.348;2023-01-28T11:15:04;97087.91;;;0.66;100.00
30339;BME280;795;49.296;11.348;2023-01-28T11:17:37;96940.06;;;-0.21;100.00
30339;BME280;795;49.296;11.348;2023-01-28T11:20:26;97093.34;;;0.63;100.00
30339;BME280;795;49.296;11.348;2023-01-28T11:22:55;97066.34;;;0.44;100.00
30339;BME280;795;49.296;11.348;2023-01-28T11:25:30;97095.06;;;0.64;100.00
30339;BME280;795;49.296;11.348;2023-01-28T11:28:04;97100.19;;;0.68;100.00
30339;BME280;795;49.296;11.348;2023-01-28T11:30:38;97081.84;;;0.64;100.00
30339;BME280;795;49.296;11.348;2023-01-28T11:33:30;97045.47;;;0.26;100.00
30339;BME280;795;49.296;11.348;2023-01-28T11:36:30;96982.72;;;0.01;100.00
30339;BME280;795;49.296;11.348;2023-01-28T11:39:16;97093.16;;;0.52;100.00
30339;BME280;795;49.296;11.348;2023-01-28T11:41:45;97109.00;;;0.52;100.00
30339;BME280;795;49.296;11.348;2023-01-28T11:44:25;97052.72;;;0.22;100.00
30339;BME280;795;49.296;11.348;2023-01-28T11:50:24;97028.75;;;0.11;100.00
30339;BME280;795;49.296;11.348;2023-01-28T11:53:45;97085.25;;;0.66;100.00
30339;BME280;795;49.296;11.348;2023-01-28T12:00:27;97099.81;;;1.02;100.00
30339;BME280;795;49.296;11.348;2023-01-28T12:03:42;97084.41;;;1.22;100.00
30339;BME280;795;49.296;11.348;2023-01-28T12:06:56;97091.81;;;1.58;100.00
30339;BME280;795;49.296;11.348;2023-01-28T12:10:06;97060.69;;;1.76;100.00
30339;BME280;795;49.296;11.348;2023-01-28T12:21:48;97004.31;;;0.80;100.00
30339;BME280;795;49.296;11.348;2023-01-28T12:34:14;96917.00;;;-0.04;100.00
30339;BME280;795;49.296;11.348;2023-01-28T12:37:33;97089.44;;;0.99;100.00
30339;BME280;795;49.296;11.348;2023-01-28T12:41:00;97042.50;;;0.74;100.00
30339;BME280;795;49.296;11.348;2023-01-28T12:43:59;97004.66;;;0.45;100.00
30339;BME280;795;49.296;11.348;2023-01-28T12:47:08;97037.88;;;0.63;100.00
30339;BME280;795;49.296;11.348;2023-01-28T12:49:44;97065.25;;;0.91;100.00
30339;BME280;795;49.296;11.348;2023-01-28T12:52:38;97071.41;;;0.91;100.00
30339;BME280;795;49.296;11.348;2023-01-28T12:55:44;96985.03;;;0.35;100.00
30339;BME280;795;49.296;11.348;2023-01-28T12:58:23;97032.53;;;0.65;100.00
30339;BME280;795;49.296;11.348;2023-01-28T13:01:06;97001.63;;;0.65;100.00
30339;BME280;795;49.296;11.348;2023-01-28T13:04:10;97071.28;;;1.07;100.00
30339;BME280;795;49.296;11.348;2023-01-28T13:07:01;97004.94;;;0.55;100.00
30339;BME280;795;49.296;11.348;2023-01-28T13:09:36;97072.16;;;0.93;100.00
30339;BME280;795;49.296;11.348;2023-01-28T13:12:05;96936.06;;;0.02;100.00
30339;BME280;795;49.296;11.348;2023-01-28T13:14:34;96918.31;;;-0.11;100.00
30339;BME280;795;49.296;11.348;2023-01-28T13:17:29;97066.56;;;1.12;100.00
30339;BME280;795;49.296;11.348;2023-01-28T13:19:59;96974.19;;;0.54;100.00
30339;BME280;795;49.296;11.348;2023-01-28T13:22:34;97015.16;;;0.75;100.00
30339;BME280;795;49.296;11.348;2023-01-28T13:25:24;97076.59;;;1.21;100.00
30339;BME280;795;49.296;11.348;2023-01-28T13:28:05;97069.91;;;1.01;100.00
30339;BME280;795;49.296;11.348;2023-01-28T13:30:47;97025.81;;;0.74;100.00
30339;BME280;795;49.296;11.348;2023-01-28T13:33:37;97078.69;;;1.16;100.00
30339;BME280;795;49.296;11.348;2023-01-28T13:38:45;97032.16;;;1.26;100.00
30339;BME280;795;49.296;11.348;2023-01-28T13:41:12;97026.34;;;1.07;100.00
30339;BME280;795;49.296;11.348;2023-01-28T13:43:41;96975.97;;;0.82;100.00
30339;BME280;795;49.296;11.348;2023-01-28T13:46:26;97088.56;;;1.26;100.00
30339;BME280;795;49.296;11.348;2023-01-28T13:48:57;97087.91;;;1.23;100.00
30339;BME280;795;49.296;11.348;2023-01-28T13:51:36;97075.06;;;1.03;100.00
30339;BME280;795;49.296;11.348;2023-01-28T13:54:21;96996.56;;;0.77;100.00
30339;BME280;795;49.296;11.348;2023-01-28T14:09:31;97100.56;;;1.18;100.00
30339;BME280;795;49.296;11.348;2023-01-28T14:12:46;97100.94;;;1.12;100.00
30339;BME280;795;49.296;11.348;2023-01-28T14:15:53;97112.09;;;1.03;100.00
30339;BME280;795;49.296;11.348;2023-01-28T14:18:30;97059.59;;;0.83;100.00
30339;BME280;795;49.296;11.348;2023-01-28T14:21:10;96984.56;;;0.29;100.00
30339;BME280;795;49.296;11.348;2023-01-28T14:23:52;97107.72;;;1.02;100.00
30339;BME280;795;49.296;11.348;2023-01-28T14:26:42;97036.94;;;0.50;100.00
30339;BME280;795;49.296;11.348;2023-01-28T14:29:52;97077.63;;;0.76;100.00
30339;BME280;795;49.296;11.348;2023-01-28T14:32:30;97015.56;;;0.25;100.00
30339;BME280;795;49.296;11.348;2023-01-28T14:35:08;97117.38;;;1.03;100.00
30339;BME280;795;49.296;11.348;2023-01-28T14:37:35;97021.72;;;0.54;100.00
30339;BME280;795;49.296;11.348;2023-01-28T14:40:12;97121.75;;;1.04;100.00
30339;BME280;795;49.296;11.348;2023-01-28T14:42:52;97067.31;;;0.57;100.00
30339;BME280;795;49.296;11.348;2023-01-28T14:48:33;97074.84;;;0.49;100.00
30339;BME280;795;49.296;11.348;2023-01-28T14:51:38;97092.03;;;0.56;100.00
30339;BME280;795;49.296;11.348;2023-01-28T14:54:56;97126.97;;;0.90;100.00
30339;BME280;795;49.296;11.348;2023-01-28T14:57:47;97099.66;;;0.61;100.00
30339;BME280;795;49.296;11.348;2023-01-28T15:00:27;97113.53;;;0.50;100.00